createdAt,value
2022-09-03T00:00:23.718Z,17.800
2022-09-03T00:01:22.873Z,17.800
2022-09-03T00:03:14.127Z,17.800
2022-09-03T00:03:53.201Z,17.800
2022-09-03T00:04:43.422Z,17.800
2022-09-03T00:05:34.125Z,17.800
2022-09-03T00:06:25.420Z,17.800
2022-09-03T00:07:27.555Z,17.700
2022-09-03T00:09:47.988Z,17.700
2022-09-03T00:10:36.548Z,17.700
2022-09-03T00:11:21.946Z,17.700
2022-09-03T00:12:25.503Z,17.700
2022-09-03T00:13:37.509Z,17.600
2022-09-03T00:14:26.600Z,17.600
2022-09-03T00:15:23.245Z,17.600
2022-09-03T00:16:50.823Z,17.600
2022-09-03T00:17:41.883Z,17.600
2022-09-03T00:18:28.002Z,17.600
2022-09-03T00:19:43.446Z,17.600
2022-09-03T00:20:47.714Z,17.600
2022-09-03T00:21:28.283Z,17.600
2022-09-03T00:22:23.544Z,17.600
2022-09-03T00:23:19.839Z,17.500
2022-09-03T00:24:32.100Z,17.500
2022-09-03T00:25:26.749Z,17.500
2022-09-03T00:26:54.723Z,17.500
2022-09-03T00:27:41.062Z,17.500
2022-09-03T00:28:30.594Z,17.500
2022-09-03T00:29:24.749Z,17.500
2022-09-03T00:30:23.844Z,17.500
2022-09-03T00:31:37.025Z,17.500
2022-09-03T00:32:28.651Z,17.500
2022-09-03T00:33:50.929Z,17.467
2022-09-03T00:34:43.411Z,17.400
2022-09-03T00:35:30.922Z,17.400
2022-09-03T00:36:27.088Z,17.400
2022-09-03T00:37:21.776Z,17.400
2022-09-03T00:38:21.059Z,17.400
2022-09-03T00:39:33.905Z,17.400
2022-09-03T00:40:56.864Z,17.400
2022-09-03T00:41:47.897Z,17.400
2022-09-03T00:42:40.872Z,17.300
2022-09-03T00:43:27.283Z,17.300
2022-09-03T00:44:25.768Z,17.300
2022-09-03T00:45:25.421Z,17.300
2022-09-03T00:46:26.813Z,17.300
2022-09-03T00:47:21.997Z,17.300
2022-09-03T00:48:52.120Z,17.300
2022-09-03T00:49:44.697Z,17.300
2022-09-03T00:50:33.659Z,17.300
2022-09-03T00:51:29.001Z,17.300
2022-09-03T00:52:23.304Z,17.300
2022-09-03T00:54:25.085Z,17.200
2022-09-03T00:55:55.348Z,17.200
2022-09-03T00:56:48.605Z,17.200
2022-09-03T00:57:26.709Z,17.200
2022-09-03T00:58:24.416Z,17.200
2022-09-03T00:59:26.659Z,17.200
2022-09-03T01:00:38.754Z,17.200
2022-09-03T01:01:38.993Z,17.200
2022-09-03T01:03:18.622Z,17.200
2022-09-03T01:03:26.471Z,17.200
2022-09-03T01:53:20.531Z,16.900
2022-09-03T01:54:25.488Z,16.900
2022-09-03T01:55:31.305Z,16.900
2022-09-03T01:56:55.582Z,16.900
2022-09-03T01:58:28.349Z,16.800
2022-09-03T02:44:29.646Z,16.700
2022-09-03T02:45:32.871Z,16.700
2022-09-03T02:46:26.635Z,16.700
2022-09-03T02:48:04.850Z,16.700
2022-09-03T02:48:48.197Z,16.700
2022-09-03T02:49:35.156Z,16.700
2022-09-03T02:50:22.203Z,16.700
2022-09-03T02:51:46.953Z,16.700
2022-09-03T02:53:27.451Z,16.700
2022-09-03T02:54:22.974Z,16.700
2022-09-03T02:55:22.495Z,16.700
2022-09-03T02:56:38.915Z,16.700
2022-09-03T02:57:27.722Z,16.800
2022-09-03T02:58:45.116Z,16.800
2022-09-03T02:59:40.695Z,16.800
2022-09-03T03:00:34.008Z,16.800
2022-09-03T03:02:20.589Z,16.800
2022-09-03T03:03:40.048Z,16.800
2022-09-03T03:04:28.566Z,16.800
2022-09-03T03:05:50.795Z,16.800
2022-09-03T03:06:41.004Z,16.800
2022-09-03T03:07:39.708Z,16.800
2022-09-03T03:09:19.739Z,16.800
2022-09-03T03:10:44.372Z,16.800
2022-09-03T03:11:28.001Z,16.800
2022-09-03T03:12:23.357Z,16.800
2022-09-03T03:13:38.908Z,16.800
2022-09-03T03:14:41.887Z,16.800
2022-09-03T03:15:26.549Z,16.800
2022-09-03T03:16:24.370Z,16.800
2022-09-03T03:17:22.346Z,16.800
2022-09-03T03:18:31.840Z,16.800
2022-09-03T03:19:23.783Z,16.800
2022-09-03T03:20:55.153Z,16.900
2022-09-03T03:21:47.535Z,16.900
2022-09-03T03:22:30.413Z,16.900
2022-09-03T03:23:22.382Z,16.900
2022-09-03T03:24:21.802Z,16.900
2022-09-03T03:25:35.956Z,16.900
2022-09-03T03:26:23.165Z,16.900
2022-09-03T03:27:57.177Z,16.900
2022-09-03T03:28:48.100Z,16.900
2022-09-03T03:29:25.647Z,16.900
2022-09-03T03:30:32.269Z,16.900
2022-09-03T03:31:25.287Z,16.900
2022-09-03T03:32:22.927Z,16.900
2022-09-03T03:33:22.252Z,16.900
2022-09-03T03:34:33.206Z,16.900
2022-09-03T03:35:30.723Z,17.000
2022-09-03T03:36:38.428Z,17.000
2022-09-03T03:37:22.371Z,17.000
2022-09-03T03:38:30.655Z,17.000
2022-09-03T03:39:22.349Z,17.000
2022-09-03T03:40:22.542Z,17.000
2022-09-03T03:41:37.847Z,17.000
2022-09-03T03:42:51.913Z,17.000
2022-09-03T03:43:38.928Z,17.000
2022-09-03T03:44:24.966Z,17.000
2022-09-03T03:45:33.517Z,17.000
2022-09-03T03:46:31.266Z,17.000
2022-09-03T03:48:32.106Z,17.000
2022-09-03T03:49:54.578Z,17.000
2022-09-03T03:50:41.516Z,17.000
2022-09-03T03:51:20.742Z,17.000
2022-09-03T03:52:33.065Z,17.000
2022-09-03T03:53:31.463Z,17.000
2022-09-03T03:54:27.718Z,17.000
2022-09-03T03:55:23.805Z,17.000
2022-09-03T03:56:59.211Z,17.000
2022-09-03T03:57:24.430Z,17.000
2022-09-03T03:58:33.938Z,17.000
2022-09-03T03:59:44.851Z,17.000
2022-09-03T04:01:29.459Z,17.000
2022-09-03T04:02:24.920Z,17.000
2022-09-03T04:04:43.844Z,17.000
2022-09-03T04:05:35.570Z,17.000
2022-09-03T04:06:22.071Z,17.000
2022-09-03T04:07:43.003Z,17.000
2022-09-03T04:09:28.951Z,17.000
2022-09-03T04:11:50.391Z,17.000
2022-09-03T04:12:37.387Z,17.000
2022-09-03T04:13:22.733Z,17.000
2022-09-03T04:14:27.712Z,17.100
2022-09-03T04:15:40.674Z,17.000
2022-09-03T04:19:40.153Z,17.100
2022-09-03T04:20:27.316Z,17.100
2022-09-03T04:21:49.731Z,17.100
2022-09-03T04:25:25.058Z,17.100
2022-09-03T04:26:37.979Z,17.100
2022-09-03T04:27:34.293Z,17.100
2022-09-03T04:28:57.297Z,17.100
2022-09-03T04:29:48.887Z,17.100
2022-09-03T04:32:25.825Z,17.000
2022-09-03T04:34:34.038Z,17.000
2022-09-03T04:35:59.705Z,17.000
2022-09-03T04:37:34.708Z,17.000
2022-09-03T04:38:31.686Z,17.000
2022-09-03T04:39:30.198Z,17.000
2022-09-03T04:42:23.921Z,17.000
2022-09-03T04:43:41.997Z,17.000
2022-09-03T04:44:49.089Z,17.000
2022-09-03T04:46:36.003Z,17.000
2022-09-03T04:49:24.901Z,17.000
2022-09-03T04:51:02.588Z,17.000
2022-09-03T04:51:47.908Z,17.000
2022-09-03T04:52:34.871Z,17.000
2022-09-03T04:53:24.881Z,17.000
2022-09-03T04:54:31.992Z,17.000
2022-09-03T04:57:37.945Z,17.000
2022-09-03T04:58:53.678Z,17.000
2022-09-03T04:59:38.484Z,17.000
2022-09-03T05:00:27.167Z,17.000
2022-09-03T05:01:34.759Z,17.000
2022-09-03T05:05:07.102Z,16.900
2022-09-03T05:05:32.275Z,16.900
2022-09-03T05:06:40.156Z,16.900
2022-09-03T05:07:27.959Z,16.900
2022-09-03T05:08:40.355Z,16.900
2022-09-03T05:12:52.355Z,16.900
2022-09-03T05:13:45.637Z,16.900
2022-09-03T05:14:33.374Z,16.800
2022-09-03T05:15:44.837Z,16.800
2022-09-03T05:17:34.994Z,16.800
2022-09-03T05:20:51.274Z,16.800
2022-09-03T05:21:25.631Z,16.800
2022-09-03T05:22:35.487Z,16.800
2022-09-03T05:23:41.519Z,16.800
2022-09-03T05:27:26.053Z,16.800
2022-09-03T05:28:37.633Z,16.800
2022-09-03T05:29:22.963Z,16.800
2022-09-03T05:30:45.315Z,16.800
2022-09-03T05:35:40.501Z,16.700
2022-09-03T05:36:26.625Z,16.700
2022-09-03T05:37:53.354Z,16.700
2022-09-03T05:39:40.064Z,16.700
2022-09-03T05:41:21.543Z,16.600
2022-09-03T05:42:42.440Z,16.600
2022-09-03T05:43:29.386Z,16.600
2022-09-03T05:44:28.378Z,16.600
2022-09-03T05:45:46.411Z,16.600
2022-09-03T05:48:30.313Z,16.600
2022-09-03T05:50:38.183Z,16.600
2022-09-03T05:51:50.021Z,16.600
2022-09-03T05:52:50.211Z,16.600
2022-09-03T05:55:28.499Z,16.600
2022-09-03T05:58:20.660Z,16.600
2022-09-03T05:59:56.437Z,16.600
2022-09-03T06:01:31.874Z,16.600
2022-09-03T06:02:31.623Z,16.600
2022-09-03T06:05:24.276Z,16.600
2022-09-03T06:06:22.419Z,16.600
2022-09-03T06:07:36.372Z,16.600
2022-09-03T06:08:33.501Z,16.600
2022-09-03T06:09:35.969Z,16.700
2022-09-03T06:10:40.225Z,16.700
2022-09-03T06:11:21.632Z,16.700
2022-09-03T06:12:27.118Z,16.700
2022-09-03T06:13:44.569Z,16.700
2022-09-03T06:14:53.586Z,16.700
2022-09-03T06:15:40.884Z,16.800
2022-09-03T06:16:31.541Z,16.800
2022-09-03T06:17:32.821Z,16.800
2022-09-03T06:18:26.485Z,16.800
2022-09-03T06:19:29.625Z,16.800
2022-09-03T06:21:01.122Z,16.800
2022-09-03T06:21:40.310Z,16.800
2022-09-03T06:22:41.369Z,16.900
2022-09-03T06:26:25.756Z,16.900
2022-09-03T06:27:24.989Z,16.900
2022-09-03T06:28:57.560Z,16.900
2022-09-03T06:29:32.558Z,16.900
2022-09-03T06:30:30.294Z,16.900
2022-09-03T06:31:40.747Z,16.900
2022-09-03T06:32:36.540Z,16.900
2022-09-03T06:33:28.899Z,17.000
2022-09-03T06:34:26.685Z,17.000
2022-09-03T06:35:35.853Z,17.000
2022-09-03T06:36:45.797Z,17.000
2022-09-03T06:37:31.810Z,17.000
2022-09-03T06:39:39.334Z,17.000
2022-09-03T06:40:27.144Z,17.000
2022-09-03T06:41:27.295Z,17.000
2022-09-03T06:42:53.758Z,17.100
2022-09-03T06:43:48.311Z,17.100
2022-09-03T06:44:36.155Z,17.100
2022-09-03T06:45:22.966Z,17.100
2022-09-03T06:46:35.327Z,17.100
2022-09-03T06:47:36.833Z,17.100
2022-09-03T06:48:29.819Z,17.100
2022-09-03T06:49:27.451Z,17.100
2022-09-03T06:50:50.958Z,17.100
2022-09-03T06:51:26.802Z,17.100
2022-09-03T06:52:23.598Z,17.100
2022-09-03T06:53:48.722Z,17.200
2022-09-03T06:54:41.518Z,17.200
2022-09-03T06:55:33.548Z,17.200
2022-09-03T06:56:25.668Z,17.200
2022-09-03T06:57:31.161Z,17.200
2022-09-03T06:58:44.736Z,17.200
2022-09-03T06:59:29.885Z,17.200
2022-09-03T07:00:52.054Z,17.200
2022-09-03T07:01:45.844Z,17.300
2022-09-03T07:02:22.388Z,17.300
2022-09-03T07:03:21.633Z,17.300
2022-09-03T07:04:22.554Z,17.300
2022-09-03T07:05:48.065Z,17.300
2022-09-03T07:06:31.538Z,17.300
2022-09-03T07:07:55.657Z,17.350
2022-09-03T07:08:27.004Z,17.400
2022-09-03T07:09:46.351Z,17.400
2022-09-03T07:11:26.548Z,17.400
2022-09-03T07:12:20.659Z,17.400
2022-09-03T07:13:32.924Z,17.400
2022-09-03T07:14:20.181Z,17.400
2022-09-03T07:15:46.092Z,17.400
2022-09-03T07:16:47.416Z,17.500
2022-09-03T07:18:31.327Z,17.500
2022-09-03T07:19:26.596Z,17.500
2022-09-03T07:21:23.352Z,17.500
2022-09-03T07:22:34.373Z,17.600
2022-09-03T07:29:32.637Z,17.700
2022-09-03T07:30:25.372Z,17.700
2022-09-03T07:32:22.149Z,17.800
2022-09-03T07:39:23.856Z,17.900
2022-09-03T07:40:28.436Z,17.900
2022-09-03T07:41:27.094Z,17.900
2022-09-03T07:42:23.969Z,17.900
2022-09-03T07:51:25.173Z,18.000
2022-09-03T07:52:23.049Z,18.000
2022-09-03T07:59:21.209Z,18.000
2022-09-03T08:00:33.224Z,18.100
2022-09-03T08:01:19.839Z,18.100
2022-09-03T08:06:24.468Z,18.200
2022-09-03T08:07:35.951Z,18.200
2022-09-03T08:08:37.337Z,18.200
2022-09-03T08:09:24.299Z,18.200
2022-09-03T08:10:28.028Z,18.200
2022-09-03T08:11:32.802Z,18.200
2022-09-03T08:12:25.970Z,18.200
2022-09-03T08:13:21.579Z,18.300
2022-09-03T08:14:31.974Z,18.300
2022-09-03T08:15:22.329Z,18.300
2022-09-03T08:16:23.414Z,18.300
2022-09-03T08:17:36.499Z,18.300
2022-09-03T08:18:29.317Z,18.300
2022-09-03T08:19:21.541Z,18.300
2022-09-03T08:20:22.414Z,18.300
2022-09-03T08:21:28.109Z,18.300
2022-09-03T08:22:31.873Z,18.300
2022-09-03T08:23:23.445Z,18.300
2022-09-03T08:24:35.817Z,18.300
2022-09-03T08:25:31.150Z,18.300
2022-09-03T08:26:26.138Z,18.300
2022-09-03T08:27:29.744Z,18.300
2022-09-03T08:29:27.202Z,18.300
2022-09-03T08:30:23.304Z,18.400
2022-09-03T08:31:33.842Z,18.400
2022-09-03T08:32:21.763Z,18.400
2022-09-03T08:33:27.405Z,18.400
2022-09-03T08:34:21.483Z,18.400
2022-09-03T08:35:25.159Z,18.400
2022-09-03T08:36:28.497Z,18.400
2022-09-03T08:37:23.271Z,18.400
2022-09-03T08:38:28.695Z,18.400
2022-09-03T08:39:30.606Z,18.500
2022-09-03T08:40:26.649Z,18.500
2022-09-03T08:41:22.431Z,18.500
2022-09-03T08:42:29.278Z,18.500
2022-09-03T08:43:27.841Z,18.500
2022-09-03T08:44:24.863Z,18.500
2022-09-03T08:45:35.685Z,18.500
2022-09-03T08:46:29.536Z,18.500
2022-09-03T08:47:30.007Z,18.500
2022-09-03T08:48:25.858Z,18.600
2022-09-03T08:49:24.367Z,18.600
2022-09-03T08:50:30.183Z,18.600
2022-09-03T08:51:24.264Z,18.600
2022-09-03T08:52:21.307Z,18.600
2022-09-03T08:53:32.634Z,18.600
2022-09-03T08:54:26.901Z,18.600
2022-09-03T08:55:24.035Z,18.600
2022-09-03T08:56:32.527Z,18.600
2022-09-03T08:58:24.056Z,18.700
2022-09-03T09:00:22.660Z,18.700
2022-09-03T09:01:28.750Z,18.700
2022-09-03T09:02:23.613Z,18.700
2022-09-03T09:03:31.508Z,18.700
2022-09-03T09:04:31.923Z,18.700
2022-09-03T09:06:21.252Z,18.700
2022-09-03T09:07:29.457Z,18.800
2022-09-03T09:08:25.754Z,18.800
2022-09-03T09:09:23.886Z,18.800
2022-09-03T09:10:31.551Z,18.800
2022-09-03T09:11:27.396Z,18.800
2022-09-03T09:12:25.276Z,18.800
2022-09-03T09:13:21.088Z,18.800
2022-09-03T09:14:29.227Z,18.900
2022-09-03T09:15:27.905Z,18.900
2022-09-03T09:16:21.635Z,18.900
2022-09-03T09:17:25.468Z,18.900
2022-09-03T09:18:29.437Z,18.900
2022-09-03T09:19:24.234Z,19.000
2022-09-03T09:20:21.833Z,19.000
2022-09-03T09:21:22.614Z,19.000
2022-09-03T09:22:27.822Z,19.000
2022-09-03T09:23:29.607Z,19.050
2022-09-03T09:24:23.361Z,19.100
2022-09-03T09:25:28.407Z,19.100
2022-09-03T09:28:25.228Z,19.200
2022-09-03T09:30:21.462Z,19.200
2022-09-03T09:31:25.549Z,19.200
2022-09-03T09:32:28.416Z,19.300
2022-09-03T09:33:27.749Z,19.300
2022-09-03T09:34:19.369Z,19.300
2022-09-03T09:35:22.230Z,19.300
2022-09-03T09:36:23.400Z,19.300
2022-09-03T09:37:22.491Z,19.300
2022-09-03T09:38:28.884Z,19.300
2022-09-03T09:40:25.360Z,19.300
2022-09-03T09:41:19.278Z,19.300
2022-09-03T09:42:32.264Z,19.300
2022-09-03T09:43:22.628Z,19.400
2022-09-03T09:44:21.373Z,19.400
2022-09-03T09:45:25.927Z,19.400
2022-09-03T09:46:27.242Z,19.400
2022-09-03T09:47:27.779Z,19.400
2022-09-03T09:48:21.568Z,19.500
2022-09-03T09:49:35.011Z,19.500
2022-09-03T09:51:22.745Z,19.500
2022-09-03T09:52:37.318Z,19.500
2022-09-03T09:53:21.217Z,19.500
2022-09-03T09:54:25.204Z,19.600
2022-09-03T09:55:20.297Z,19.600
2022-09-03T09:56:29.637Z,19.600
2022-09-03T09:57:25.883Z,19.600
2022-09-03T09:58:22.825Z,19.600
2022-09-03T10:00:28.552Z,19.700
2022-09-03T10:01:25.721Z,19.700
2022-09-03T10:02:22.429Z,19.700
2022-09-03T10:03:32.999Z,19.800
2022-09-03T10:04:29.835Z,19.800
2022-09-03T10:05:22.926Z,19.800
2022-09-03T10:06:21.316Z,19.800
2022-09-03T10:07:27.499Z,19.900
2022-09-03T10:08:28.992Z,19.900
2022-09-03T10:09:19.389Z,19.900
2022-09-03T10:10:30.501Z,20.000
2022-09-03T10:11:24.585Z,20.000
2022-09-03T10:12:23.858Z,20.000
2022-09-03T10:13:23.519Z,20.000
2022-09-03T10:15:24.126Z,20.100
2022-09-03T10:16:22.035Z,20.100
2022-09-03T10:17:37.352Z,20.200
2022-09-03T10:18:28.657Z,20.200
2022-09-03T10:19:26.680Z,20.200
2022-09-03T10:20:27.799Z,20.200
2022-09-03T10:21:23.804Z,20.200
2022-09-03T10:22:21.580Z,20.300
2022-09-03T10:23:21.516Z,20.300
2022-09-03T10:24:29.772Z,20.350
2022-09-03T10:25:32.611Z,20.500
2022-09-03T10:26:21.821Z,20.500
2022-09-03T10:27:37.994Z,20.500
2022-09-03T10:29:23.670Z,20.600
2022-09-03T10:30:21.329Z,20.600
2022-09-03T10:31:30.657Z,20.600
2022-09-03T10:32:27.433Z,20.600
2022-09-03T10:33:24.932Z,20.600
2022-09-03T10:34:31.292Z,20.700
2022-09-03T10:35:29.468Z,20.700
2022-09-03T10:37:36.998Z,20.700
2022-09-03T10:38:31.093Z,20.700
2022-09-03T10:39:32.526Z,20.700
2022-09-03T10:40:22.073Z,20.700
2022-09-03T10:41:20.637Z,20.800
2022-09-03T10:42:27.396Z,20.800
2022-09-03T10:43:26.974Z,20.900
2022-09-03T10:45:29.569Z,20.900
2022-09-03T10:46:27.192Z,21.000
2022-09-03T10:47:21.476Z,21.000
2022-09-03T10:48:31.729Z,21.100
2022-09-03T10:49:38.360Z,21.100
2022-09-03T10:50:23.312Z,21.100
2022-09-03T10:51:23.640Z,21.200
2022-09-03T10:52:21.793Z,21.200
2022-09-03T10:53:29.139Z,21.200
2022-09-03T10:54:34.926Z,21.300
2022-09-03T10:55:31.640Z,21.300
2022-09-03T10:56:29.048Z,21.400
2022-09-03T10:57:25.806Z,21.400
2022-09-03T10:58:25.406Z,21.500
2022-09-03T10:59:19.764Z,21.500
2022-09-03T11:00:27.264Z,21.500
2022-09-03T11:01:21.366Z,21.500
2022-09-03T11:02:31.716Z,21.500
2022-09-03T11:03:29.886Z,21.500
2022-09-03T11:04:23.588Z,21.500
2022-09-03T11:06:24.187Z,21.500
2022-09-03T11:07:21.946Z,21.500
2022-09-03T11:08:22.147Z,21.500
2022-09-03T11:09:20.067Z,21.600
2022-09-03T11:10:30.898Z,21.600
2022-09-03T11:11:23.735Z,21.600
2022-09-03T11:12:20.541Z,21.600
2022-09-03T11:13:30.704Z,21.600
2022-09-03T11:14:20.360Z,21.600
2022-09-03T11:15:27.569Z,21.600
2022-09-03T11:16:25.178Z,21.600
2022-09-03T11:17:29.794Z,21.600
2022-09-03T11:18:25.994Z,21.700
2022-09-03T11:19:21.748Z,21.700
2022-09-03T11:20:35.075Z,21.700
2022-09-03T11:22:24.671Z,21.700
2022-09-03T11:23:26.605Z,21.700
2022-09-03T11:24:28.993Z,21.700
2022-09-03T11:25:23.629Z,21.800
2022-09-03T11:26:22.708Z,21.800
2022-09-03T11:27:21.129Z,21.800
2022-09-03T11:28:31.734Z,21.800
2022-09-03T11:30:20.401Z,22.000
2022-09-03T11:31:27.569Z,22.000
2022-09-03T11:32:29.736Z,22.100
2022-09-03T11:33:20.531Z,22.100
2022-09-03T11:34:32.224Z,22.100
2022-09-03T11:35:26.846Z,22.100
2022-09-03T11:36:23.710Z,22.100
2022-09-03T11:37:24.396Z,22.100
2022-09-03T11:38:29.427Z,22.200
2022-09-03T11:39:23.613Z,22.233
2022-09-03T11:40:22.189Z,22.300
2022-09-03T11:41:30.418Z,22.300
2022-09-03T11:42:25.481Z,22.400
2022-09-03T11:43:23.476Z,22.400
2022-09-03T11:44:22.825Z,22.400
2022-09-03T11:45:28.348Z,22.500
2022-09-03T11:46:25.774Z,22.500
2022-09-03T11:47:19.627Z,22.533
2022-09-03T11:48:32.612Z,22.600
2022-09-03T11:49:30.218Z,22.600
2022-09-03T11:50:21.956Z,22.600
2022-09-03T11:51:26.484Z,22.600
2022-09-03T11:52:20.453Z,22.600
2022-09-03T11:53:25.519Z,22.600
2022-09-03T11:54:35.892Z,22.600
2022-09-03T11:55:43.458Z,22.600
2022-09-03T11:56:22.236Z,22.600
2022-09-03T11:57:21.465Z,22.600
2022-09-03T11:58:31.733Z,22.600
2022-09-03T11:59:23.474Z,22.600
2022-09-03T12:00:24.611Z,22.700
2022-09-03T12:01:19.805Z,22.700
2022-09-03T12:02:29.890Z,22.700
2022-09-03T12:03:26.813Z,22.700
2022-09-03T12:04:21.438Z,22.700
2022-09-03T12:05:34.978Z,22.800
2022-09-03T12:07:23.407Z,22.800
2022-09-03T12:08:23.097Z,22.900
2022-09-03T12:09:31.492Z,22.900
2022-09-03T12:10:29.660Z,23.050
2022-09-03T12:11:45.725Z,23.200
2022-09-03T12:12:35.322Z,23.200
2022-09-03T12:13:28.105Z,23.300
2022-09-03T12:14:28.641Z,23.300
2022-09-03T12:16:30.282Z,23.300
2022-09-03T12:17:30.261Z,23.300
2022-09-03T12:18:21.287Z,23.300
2022-09-03T12:19:33.771Z,23.300
2022-09-03T12:20:29.649Z,23.300
2022-09-03T12:21:23.819Z,23.300
2022-09-03T12:22:21.425Z,23.400
2022-09-03T12:24:25.726Z,23.400
2022-09-03T12:25:22.043Z,23.500
2022-09-03T12:26:34.382Z,23.500
2022-09-03T12:27:27.620Z,23.600
2022-09-03T12:28:29.482Z,23.600
2022-09-03T12:29:22.047Z,23.700
2022-09-03T12:30:28.899Z,23.700
2022-09-03T12:31:25.698Z,23.700
2022-09-03T12:32:21.653Z,23.700
2022-09-03T12:33:33.627Z,23.700
2022-09-03T12:34:28.720Z,23.700
2022-09-03T12:36:03.990Z,23.700
2022-09-03T12:36:22.011Z,23.700
2022-09-03T12:38:09.076Z,23.700
2022-09-03T12:38:27.675Z,23.700
2022-09-03T12:40:04.519Z,23.800
2022-09-03T12:40:33.725Z,23.800
2022-09-03T12:41:29.059Z,23.800
2022-09-03T12:42:25.124Z,23.800
2022-09-03T12:43:55.452Z,23.900
2022-09-03T12:44:29.393Z,23.900
2022-09-03T12:45:21.347Z,24.000
2022-09-03T12:46:24.692Z,24.000
2022-09-03T12:47:36.391Z,24.000
2022-09-03T12:48:28.707Z,24.000
2022-09-03T12:49:31.733Z,24.100
2022-09-03T12:50:22.827Z,24.100
2022-09-03T12:52:06.629Z,24.100
2022-09-03T12:53:27.596Z,24.100
2022-09-03T12:54:33.046Z,24.100
2022-09-03T12:55:28.090Z,24.200
2022-09-03T12:56:27.576Z,24.200
2022-09-03T12:57:23.048Z,24.200
2022-09-03T12:58:29.028Z,24.200
2022-09-03T12:59:30.843Z,24.200
2022-09-03T13:01:24.159Z,24.200
2022-09-03T13:03:00.015Z,24.200
2022-09-03T13:03:30.572Z,24.150
2022-09-03T13:04:19.492Z,24.100
2022-09-03T13:05:29.820Z,24.100
2022-09-03T13:06:26.632Z,24.100
2022-09-03T13:07:24.642Z,24.100
2022-09-03T13:09:27.906Z,24.100
2022-09-03T13:10:23.270Z,24.100
2022-09-03T13:11:20.957Z,24.100
2022-09-03T13:12:35.358Z,24.100
2022-09-03T13:13:25.559Z,24.100
2022-09-03T13:14:23.808Z,24.100
2022-09-03T13:15:25.917Z,24.000
2022-09-03T13:16:25.048Z,24.000
2022-09-03T13:17:25.635Z,24.000
2022-09-03T13:18:19.605Z,23.900
2022-09-03T13:19:23.033Z,23.900
2022-09-03T13:20:25.651Z,23.900
2022-09-03T13:21:24.393Z,23.800
2022-09-03T13:22:25.581Z,23.800
2022-09-03T13:23:28.830Z,23.900
2022-09-03T13:24:27.134Z,23.900
2022-09-03T13:25:19.295Z,23.850
2022-09-03T13:26:28.238Z,23.900
2022-09-03T13:27:27.060Z,23.900
2022-09-03T13:28:24.232Z,23.900
2022-09-03T13:29:36.650Z,23.800
2022-09-03T13:30:24.800Z,23.800
2022-09-03T13:32:20.939Z,23.800
2022-09-03T13:33:30.685Z,23.800
2022-09-03T13:34:25.798Z,23.800
2022-09-03T13:35:23.176Z,23.800
2022-09-03T13:36:37.102Z,23.800
2022-09-03T13:38:21.135Z,23.800
2022-09-03T13:39:21.200Z,23.700
2022-09-03T13:40:33.891Z,23.700
2022-09-03T13:41:27.006Z,23.700
2022-09-03T13:42:24.233Z,23.700
2022-09-03T13:43:31.493Z,23.700
2022-09-03T13:44:32.153Z,23.600
2022-09-03T13:46:21.469Z,23.600
2022-09-03T13:47:33.977Z,23.600
2022-09-03T13:48:21.134Z,23.500
2022-09-03T13:49:26.917Z,23.500
2022-09-03T13:50:39.396Z,23.400
2022-09-03T13:51:29.141Z,23.400
2022-09-03T13:52:20.897Z,23.400
2022-09-03T13:53:21.208Z,23.300
2022-09-03T13:55:27.378Z,23.300
2022-09-03T13:56:21.797Z,23.200
2022-09-03T13:57:32.503Z,23.200
2022-09-03T13:58:27.794Z,23.100
2022-09-03T13:59:26.789Z,23.100
2022-09-03T14:00:21.329Z,23.000
2022-09-03T14:01:33.363Z,23.000
2022-09-03T14:02:19.872Z,22.900
2022-09-03T14:04:32.067Z,22.700
2022-09-03T14:05:28.526Z,22.600
2022-09-03T14:08:23.760Z,22.200
2022-09-03T14:09:26.396Z,22.100
2022-09-03T14:10:21.484Z,21.900
2022-09-03T14:11:32.342Z,21.750
2022-09-03T14:13:27.997Z,21.600
2022-09-03T14:14:21.796Z,21.500
2022-09-03T14:15:31.595Z,21.400
2022-09-03T14:16:29.056Z,21.300
2022-09-03T14:17:21.465Z,21.300
2022-09-03T14:18:31.802Z,21.167
2022-09-03T14:19:30.469Z,21.100
2022-09-03T14:20:23.506Z,21.100
2022-09-03T14:21:19.568Z,21.000
2022-09-03T14:22:34.327Z,21.000
2022-09-03T14:23:23.082Z,20.900
2022-09-03T14:24:24.455Z,20.900
2022-09-03T14:25:31.760Z,20.800
2022-09-03T14:26:38.121Z,20.700
2022-09-03T14:30:29.528Z,20.500
2022-09-03T14:32:40.767Z,20.500
2022-09-03T14:33:27.809Z,20.400
2022-09-03T14:34:25.840Z,20.300
2022-09-03T14:35:24.453Z,20.300
2022-09-03T14:36:33.181Z,20.200
2022-09-03T14:38:26.152Z,20.000
2022-09-03T14:40:30.334Z,19.900
2022-09-03T14:41:28.748Z,19.800
2022-09-03T14:42:21.382Z,19.700
2022-09-03T14:43:26.521Z,19.700
2022-09-03T14:44:29.009Z,19.600
2022-09-03T14:45:24.262Z,19.600
2022-09-03T14:46:24.156Z,19.600
2022-09-03T14:47:27.844Z,19.600
2022-09-03T14:48:23.730Z,19.500
2022-09-03T14:49:21.704Z,19.450
2022-09-03T14:50:34.585Z,19.400
2022-09-03T14:51:25.759Z,19.400
2022-09-03T14:52:26.385Z,19.400
2022-09-03T14:53:27.324Z,19.300
2022-09-03T14:55:22.650Z,19.300
2022-09-03T14:56:19.900Z,19.300
2022-09-03T14:57:31.570Z,19.300
2022-09-03T14:58:25.777Z,19.300
2022-09-03T14:59:23.720Z,19.300
2022-09-03T15:00:25.405Z,19.300
2022-09-03T15:02:24.741Z,19.300
2022-09-03T15:03:24.332Z,19.300
2022-09-03T15:04:20.742Z,19.350
2022-09-03T15:05:23.623Z,19.400
2022-09-03T15:06:31.062Z,19.400
2022-09-03T15:07:27.734Z,19.400
2022-09-03T15:08:30.001Z,19.400
2022-09-03T15:09:25.736Z,19.400
2022-09-03T15:10:25.531Z,19.400
2022-09-03T15:11:25.251Z,19.400
2022-09-03T15:12:26.884Z,19.400
2022-09-03T15:13:26.155Z,19.400
2022-09-03T15:14:32.802Z,19.300
2022-09-03T15:15:29.928Z,19.300
2022-09-03T15:17:20.766Z,19.300
2022-09-03T15:18:32.852Z,19.300
2022-09-03T15:19:26.666Z,19.300
2022-09-03T15:20:23.102Z,19.300
2022-09-03T15:21:44.829Z,19.200
2022-09-03T15:22:24.214Z,19.200
2022-09-03T15:23:28.174Z,19.200
2022-09-03T15:25:23.087Z,19.200
2022-09-03T15:26:26.697Z,19.200
2022-09-03T15:27:22.628Z,19.200
2022-09-03T15:28:33.530Z,19.200
2022-09-03T15:29:27.073Z,19.300
2022-09-03T15:30:25.813Z,19.300
2022-09-03T15:31:19.610Z,19.300
2022-09-03T15:32:32.095Z,19.300
2022-09-03T15:33:20.097Z,19.300
2022-09-03T15:34:21.454Z,19.300
2022-09-03T15:35:31.705Z,19.300
2022-09-03T15:36:28.501Z,19.300
2022-09-03T15:37:25.327Z,19.300
2022-09-03T15:46:24.510Z,19.400
2022-09-03T15:47:35.178Z,19.400
2022-09-03T15:48:37.232Z,19.400
2022-09-03T15:49:33.396Z,19.400
2022-09-03T15:50:24.171Z,19.400
2022-09-03T15:51:25.857Z,19.400
2022-09-03T15:52:19.899Z,19.400
2022-09-03T15:53:29.732Z,19.500
2022-09-03T15:54:22.647Z,19.500
2022-09-03T15:55:26.464Z,19.500
2022-09-03T15:56:27.590Z,19.500
2022-09-03T15:57:29.598Z,19.500
2022-09-03T15:58:25.336Z,19.500
2022-09-03T15:59:35.097Z,19.500
2022-09-03T16:00:34.919Z,19.500
2022-09-03T16:02:22.729Z,19.600
2022-09-03T16:03:24.549Z,19.600
2022-09-03T16:04:30.502Z,19.600
2022-09-03T16:05:27.521Z,19.600
2022-09-03T16:06:20.089Z,19.600
2022-09-03T16:07:31.831Z,19.600
2022-09-03T16:08:26.978Z,19.600
2022-09-03T16:09:23.173Z,19.600
2022-09-03T16:11:24.262Z,19.600
2022-09-03T16:12:23.755Z,19.633
2022-09-03T16:13:20.027Z,19.700
2022-09-03T16:14:29.717Z,19.700
2022-09-03T16:15:30.467Z,19.700
2022-09-03T16:16:30.611Z,19.700
2022-09-03T16:18:22.153Z,19.700
2022-09-03T16:19:24.034Z,19.700
2022-09-03T16:20:23.132Z,19.700
2022-09-03T16:21:31.612Z,19.700
2022-09-03T16:22:41.206Z,19.700
2022-09-03T16:23:22.255Z,19.700
2022-09-03T16:24:26.818Z,19.700
2022-09-03T16:25:27.411Z,19.700
2022-09-03T16:26:24.727Z,19.700
2022-09-03T16:27:22.823Z,19.700